createdAt,value
2016-07-30T00:00:02.913Z,18.12
2016-07-30T00:01:02.916Z,18.12
2016-07-30T00:02:02.916Z,18.12
2016-07-30T00:03:02.917Z,18.03
2016-07-30T00:04:02.916Z,18.08
2016-07-30T00:05:02.920Z,18.02
2016-07-30T00:06:02.925Z,17.98
2016-07-30T00:08:02.925Z,17.95
2016-07-30T00:09:02.925Z,17.98
2016-07-30T00:10:02.924Z,18.03
2016-07-30T00:11:02.929Z,18.03
2016-07-30T00:12:03.329Z,17.94
2016-07-30T00:13:02.933Z,17.91
2016-07-30T00:14:02.949Z,17.87
2016-07-30T00:15:02.934Z,17.93
2016-07-30T00:16:02.940Z,17.97
2016-07-30T00:17:02.937Z,17.9
2016-07-30T00:18:02.945Z,17.84
2016-07-30T00:19:02.938Z,17.86
2016-07-30T00:20:02.478Z,17.73
2016-07-30T00:21:02.941Z,17.8
2016-07-30T00:22:02.941Z,17.84
2016-07-30T00:23:02.942Z,17.84
2016-07-30T00:24:02.946Z,17.71
2016-07-30T00:25:02.946Z,17.71
2016-07-30T00:26:02.946Z,17.66
2016-07-30T00:27:02.949Z,17.72
2016-07-30T00:28:02.950Z,17.75
2016-07-30T00:29:02.950Z,17.68
2016-07-30T00:30:02.964Z,17.65
2016-07-30T00:31:02.954Z,17.69
2016-07-30T00:32:02.954Z,17.72
2016-07-30T00:33:02.954Z,17.6
2016-07-30T00:34:02.970Z,17.6
2016-07-30T00:35:02.957Z,17.68
2016-07-30T00:36:02.959Z,17.71
2016-07-30T00:38:02.962Z,17.68
2016-07-30T00:39:02.970Z,17.66
2016-07-30T00:40:02.971Z,17.65
2016-07-30T00:41:02.966Z,17.65
2016-07-30T00:42:02.965Z,17.6
2016-07-30T00:43:02.966Z,17.66
2016-07-30T00:44:02.278Z,17.63
2016-07-30T00:45:02.970Z,17.6
2016-07-30T00:46:02.970Z,17.59
2016-07-30T00:47:03.022Z,17.54
2016-07-30T00:48:02.974Z,17.54
2016-07-30T00:49:02.974Z,17.52
2016-07-30T00:50:02.274Z,17.53
2016-07-30T00:51:02.978Z,17.5
2016-07-30T00:52:02.978Z,17.46
2016-07-30T00:53:02.981Z,17.57
2016-07-30T00:54:02.994Z,17.46
2016-07-30T00:55:02.982Z,17.52
2016-07-30T00:56:02.986Z,17.57
2016-07-30T00:57:02.987Z,17.52
2016-07-30T00:58:02.986Z,17.56
2016-07-30T00:59:02.985Z,17.54
2016-07-30T01:00:03.002Z,17.54
2016-07-30T01:01:02.990Z,17.42
2016-07-30T01:02:02.989Z,17.44
2016-07-30T01:03:02.994Z,17.52
2016-07-30T01:04:02.995Z,17.49
2016-07-30T01:05:02.994Z,17.46
2016-07-30T01:06:03.010Z,17.42
2016-07-30T01:07:02.999Z,17.42
2016-07-30T01:08:02.999Z,17.31
2016-07-30T01:09:02.998Z,17.39
2016-07-30T01:10:02.998Z,17.38
2016-07-30T01:11:02.299Z,17.3
2016-07-30T01:12:03.004Z,17.32
2016-07-30T01:13:03.002Z,17.41
2016-07-30T01:14:03.003Z,17.31
2016-07-30T01:15:03.006Z,17.3
2016-07-30T01:16:03.007Z,17.3
2016-07-30T01:17:02.302Z,17.24
2016-07-30T01:18:03.011Z,17.23
2016-07-30T01:19:03.031Z,17.23
2016-07-30T01:20:03.010Z,17.22
2016-07-30T01:21:03.010Z,17.28
2016-07-30T01:22:03.015Z,17.22
2016-07-30T01:23:03.015Z,17.19
2016-07-30T01:24:03.015Z,17.17
2016-07-30T01:25:03.019Z,17.17
2016-07-30T01:26:03.019Z,17.14
2016-07-30T01:27:03.018Z,17.09
2016-07-30T01:28:03.027Z,17.16
2016-07-30T01:29:03.023Z,17.16
2016-07-30T01:30:03.026Z,17.13
2016-07-30T01:31:03.023Z,17.19
2016-07-30T01:32:03.027Z,17.13
2016-07-30T01:33:03.027Z,17.17
2016-07-30T01:34:03.028Z,17.1
2016-07-30T01:35:03.028Z,17.09
2016-07-30T01:36:03.032Z,17.1
2016-07-30T01:37:03.032Z,17.09
2016-07-30T01:38:03.043Z,17.01
2016-07-30T01:39:03.036Z,17.02
2016-07-30T01:40:03.036Z,17.02
2016-07-30T01:41:03.036Z,17.07
2016-07-30T01:42:03.036Z,17.1
2016-07-30T01:43:03.039Z,17.13
2016-07-30T01:44:03.040Z,16.99
2016-07-30T01:45:03.040Z,17.01
2016-07-30T01:46:03.040Z,16.95
2016-07-30T01:47:03.044Z,16.92
2016-07-30T01:48:03.047Z,16.86
2016-07-30T01:49:03.044Z,17.04
2016-07-30T01:50:03.044Z,16.97
2016-07-30T01:51:03.048Z,16.95
2016-07-30T01:52:03.047Z,16.95
2016-07-30T01:53:03.051Z,16.91
2016-07-30T01:54:03.052Z,16.94
2016-07-30T01:55:03.051Z,16.86
2016-07-30T01:56:03.052Z,16.87
2016-07-30T01:57:03.052Z,16.87
2016-07-30T01:58:03.056Z,16.82
2016-07-30T01:59:03.055Z,16.89
2016-07-30T02:00:03.055Z,16.83
2016-07-30T02:01:03.056Z,16.74
2016-07-30T02:02:03.060Z,16.73
2016-07-30T02:03:03.059Z,16.73
2016-07-30T02:04:03.060Z,16.8
2016-07-30T02:05:03.059Z,16.74
2016-07-30T02:06:03.064Z,16.72
2016-07-30T02:07:03.076Z,16.72
2016-07-30T02:08:03.068Z,16.76
2016-07-30T02:09:03.064Z,16.74
2016-07-30T02:10:03.068Z,16.69
2016-07-30T02:11:03.072Z,16.65
2016-07-30T02:12:03.068Z,16.62
2016-07-30T02:13:03.068Z,16.62
2016-07-30T02:14:03.072Z,16.66
2016-07-30T02:15:03.071Z,16.64
2016-07-30T02:16:03.071Z,16.62
2016-07-30T02:17:03.072Z,16.51
2016-07-30T02:18:03.076Z,16.51
2016-07-30T02:19:03.076Z,16.58
2016-07-30T02:20:03.077Z,16.58
2016-07-30T02:21:02.377Z,16.41
2016-07-30T02:22:03.080Z,16.55
2016-07-30T02:23:03.081Z,16.5
2016-07-30T02:24:03.080Z,16.54
2016-07-30T02:25:03.085Z,16.46
2016-07-30T02:26:03.085Z,16.54
2016-07-30T02:27:03.085Z,16.44
2016-07-30T02:28:03.086Z,16.43
2016-07-30T02:29:03.088Z,16.47
2016-07-30T02:30:03.089Z,16.4
2016-07-30T02:31:03.089Z,16.43
2016-07-30T02:32:03.089Z,16.44
2016-07-30T02:33:03.089Z,16.4
2016-07-30T02:34:02.397Z,16.4
2016-07-30T02:35:03.094Z,16.31
2016-07-30T02:36:03.102Z,16.41
2016-07-30T02:37:03.093Z,16.37
2016-07-30T02:38:03.101Z,16.4
2016-07-30T02:39:03.097Z,16.4
2016-07-30T02:40:03.098Z,16.4
2016-07-30T02:41:03.098Z,16.37
2016-07-30T02:42:03.101Z,16.39
2016-07-30T02:43:03.101Z,16.39
2016-07-30T02:44:03.102Z,16.4
2016-07-30T02:45:03.101Z,16.4
2016-07-30T02:46:03.106Z,16.29
2016-07-30T02:47:03.105Z,16.37
2016-07-30T02:48:03.106Z,16.37
2016-07-30T02:49:03.106Z,16.39
2016-07-30T02:50:03.109Z,16.37
2016-07-30T02:51:03.109Z,16.4
2016-07-30T02:52:03.110Z,16.34
2016-07-30T02:53:03.117Z,16.36
2016-07-30T02:54:03.121Z,16.32
2016-07-30T02:55:03.121Z,16.34
2016-07-30T02:56:03.114Z,16.31
2016-07-30T02:57:03.118Z,16.34
2016-07-30T02:58:03.113Z,16.29
2016-07-30T02:59:03.121Z,16.28
2016-07-30T03:00:03.117Z,16.29
2016-07-30T03:01:03.121Z,16.28
2016-07-30T03:02:03.117Z,16.28
2016-07-30T03:03:03.121Z,16.32
2016-07-30T03:04:03.121Z,16.26
2016-07-30T03:05:03.121Z,16.28
2016-07-30T03:06:03.121Z,16.28
2016-07-30T03:07:03.125Z,16.34
2016-07-30T03:08:03.125Z,16.34
2016-07-30T03:09:03.126Z,16.24
2016-07-30T03:10:03.129Z,16.34
2016-07-30T03:11:03.125Z,16.25
2016-07-30T03:12:03.130Z,16.26
2016-07-30T03:13:03.129Z,16.28
2016-07-30T03:14:03.130Z,16.18
2016-07-30T03:15:03.138Z,16.18
2016-07-30T03:16:03.133Z,16.24
2016-07-30T03:17:03.134Z,16.17
2016-07-30T03:18:03.137Z,16.21
2016-07-30T03:19:03.134Z,16.24
2016-07-30T03:20:03.134Z,16.17
2016-07-30T03:21:03.137Z,16.22
2016-07-30T03:22:03.138Z,16.24
2016-07-30T03:23:03.137Z,16.13
2016-07-30T03:24:03.138Z,16.16
2016-07-30T03:25:03.138Z,16.13
2016-07-30T03:26:03.145Z,16.03
2016-07-30T03:27:03.142Z,16.1
2016-07-30T03:28:03.141Z,16.06
2016-07-30T03:29:03.142Z,16.12
2016-07-30T03:30:03.146Z,16.09
2016-07-30T03:31:03.145Z,16.05
2016-07-30T03:32:03.145Z,15.99
2016-07-30T03:33:03.150Z,15.94
2016-07-30T03:34:03.146Z,15.94
2016-07-30T03:35:03.145Z,15.98
2016-07-30T03:36:03.150Z,16.05
2016-07-30T03:37:03.150Z,15.98
2016-07-30T03:38:03.149Z,16.02
2016-07-30T03:39:03.150Z,16.02
2016-07-30T03:40:03.154Z,16.05
2016-07-30T03:41:03.154Z,15.99
2016-07-30T03:42:03.154Z,16
2016-07-30T03:43:03.154Z,15.92
2016-07-30T03:44:03.154Z,16.05
2016-07-30T03:45:03.158Z,15.99
2016-07-30T03:46:03.158Z,15.91
2016-07-30T03:47:03.160Z,15.91
2016-07-30T03:48:03.158Z,15.9
2016-07-30T03:49:03.185Z,15.9
2016-07-30T03:50:03.170Z,15.96
2016-07-30T03:51:03.163Z,16
2016-07-30T03:52:03.161Z,15.99
2016-07-30T03:53:03.163Z,16.09
2016-07-30T03:54:03.162Z,15.94
2016-07-30T03:55:03.166Z,16
2016-07-30T03:56:03.167Z,16.03
2016-07-30T03:57:03.166Z,16.02
2016-07-30T03:58:03.165Z,15.96
2016-07-30T03:59:03.177Z,16
2016-07-30T04:00:03.171Z,15.98
2016-07-30T04:01:03.181Z,15.99
2016-07-30T04:02:03.172Z,16.02
2016-07-30T04:03:03.170Z,15.99
2016-07-30T04:04:03.171Z,15.99
2016-07-30T04:05:03.174Z,16.02
2016-07-30T04:06:03.174Z,16.02
2016-07-30T04:07:03.175Z,15.96
2016-07-30T04:08:03.179Z,16.02
2016-07-30T04:09:03.175Z,15.92
2016-07-30T04:10:03.178Z,16
2016-07-30T04:11:03.178Z,16.02
2016-07-30T04:12:03.179Z,16.03
2016-07-30T04:13:03.193Z,16.02
2016-07-30T04:14:03.178Z,15.99
2016-07-30T04:15:03.183Z,16.05
2016-07-30T04:16:03.183Z,15.99
2016-07-30T04:17:03.183Z,16.03
2016-07-30T04:18:02.487Z,16.02
2016-07-30T04:19:03.187Z,16.03
2016-07-30T04:20:03.187Z,15.98
2016-07-30T04:21:03.191Z,16
2016-07-30T04:22:03.187Z,15.98
2016-07-30T04:23:03.187Z,15.99
2016-07-30T04:24:03.187Z,16.06
2016-07-30T04:25:03.191Z,16.08
2016-07-30T04:26:03.198Z,16.06
2016-07-30T04:27:03.191Z,16.06
2016-07-30T04:28:03.192Z,16.28
2016-07-30T04:29:03.191Z,16.46
2016-07-30T04:30:03.191Z,16.61
2016-07-30T04:31:03.194Z,16.89
2016-07-30T04:32:03.196Z,17.13
2016-07-30T04:33:03.196Z,17.46
2016-07-30T04:34:03.196Z,17.86
2016-07-30T04:35:03.200Z,18.18
2016-07-30T04:36:03.199Z,18.51
2016-07-30T04:37:03.199Z,18.91
2016-07-30T04:39:03.201Z,19.6
2016-07-30T04:40:03.207Z,19.87
2016-07-30T04:41:03.203Z,20.3
2016-07-30T04:42:03.204Z,20.73
2016-07-30T04:43:03.204Z,21.15
2016-07-30T04:44:03.203Z,21.43
2016-07-30T04:45:03.204Z,21.84
2016-07-30T04:46:03.208Z,22.33
2016-07-30T04:47:03.208Z,22.7
2016-07-30T04:48:03.208Z,23.01
2016-07-30T04:49:03.208Z,23.42
2016-07-30T04:50:03.208Z,23.59
2016-07-30T04:51:03.212Z,23.94
2016-07-30T04:52:03.212Z,24.19
2016-07-30T04:54:03.212Z,24.79
2016-07-30T04:55:03.212Z,24.93
2016-07-30T04:56:03.217Z,24.96
2016-07-30T04:57:03.216Z,25.18
2016-07-30T04:58:03.215Z,25.29
2016-07-30T04:59:03.216Z,25.36
2016-07-30T05:00:03.217Z,25.56
2016-07-30T05:01:03.220Z,25.86
2016-07-30T05:02:03.220Z,25.95
2016-07-30T05:03:03.220Z,26.11
2016-07-30T05:04:03.221Z,26.23
2016-07-30T05:05:03.225Z,26.41
2016-07-30T05:06:03.224Z,26.67
2016-07-30T05:07:03.225Z,26.82
2016-07-30T05:08:03.224Z,27.16
2016-07-30T05:09:03.225Z,27.41
2016-07-30T05:10:03.225Z,27.85
2016-07-30T05:11:02.525Z,28.28
2016-07-30T05:12:03.229Z,28.59
2016-07-30T05:13:03.229Z,28.94
2016-07-30T05:14:03.228Z,29.32
2016-07-30T05:15:03.232Z,29.58
2016-07-30T05:16:03.232Z,29.99
2016-07-30T05:17:03.232Z,30.32
2016-07-30T05:18:03.232Z,30.65
2016-07-30T05:19:03.236Z,30.96
2016-07-30T05:20:03.247Z,31.51
2016-07-30T05:21:03.237Z,31.81
2016-07-30T05:22:03.241Z,32.23
2016-07-30T05:23:03.241Z,32.56
2016-07-30T05:24:03.241Z,32.95
2016-07-30T05:25:03.241Z,33.17
2016-07-30T05:26:03.245Z,33.53
2016-07-30T05:27:03.245Z,33.89
2016-07-30T05:28:03.253Z,34.25
2016-07-30T05:29:03.249Z,34.65
2016-07-30T05:30:03.249Z,35.03
2016-07-30T05:31:03.250Z,35.27
2016-07-30T05:32:03.249Z,35.59
2016-07-30T05:33:03.254Z,35.97
2016-07-30T05:34:03.253Z,36.2
2016-07-30T05:35:03.254Z,36.38
2016-07-30T05:36:03.258Z,36.57
2016-07-30T05:37:03.258Z,36.65
2016-07-30T05:38:03.266Z,36.78
2016-07-30T05:39:03.261Z,37.03
2016-07-30T05:40:03.262Z,37.09
2016-07-30T05:41:03.262Z,37.09
2016-07-30T05:42:03.266Z,37.19
2016-07-30T05:43:03.266Z,37.33
2016-07-30T05:44:03.266Z,37.34
2016-07-30T05:45:03.282Z,37.4
2016-07-30T05:46:03.270Z,37.56
2016-07-30T05:47:03.290Z,37.63
2016-07-30T05:48:03.286Z,37.75
2016-07-30T05:49:03.274Z,37.48
2016-07-30T05:50:03.279Z,37.44
2016-07-30T05:51:03.283Z,37.19
2016-07-30T05:52:03.277Z,36.91
2016-07-30T05:53:02.579Z,36.82
2016-07-30T05:54:03.282Z,36.84
2016-07-30T05:55:03.287Z,37.1
2016-07-30T05:56:03.292Z,37.04
2016-07-30T05:57:03.286Z,36.99
2016-07-30T05:58:03.291Z,36.81
2016-07-30T05:59:03.439Z,36.55
2016-07-30T06:00:03.300Z,36.26
2016-07-30T06:01:03.295Z,35.74
2016-07-30T06:02:03.295Z,35.18
2016-07-30T06:03:03.299Z,34.37
2016-07-30T06:04:03.299Z,33.75
2016-07-30T06:05:03.303Z,32.95
2016-07-30T06:06:03.304Z,32.26
2016-07-30T06:07:03.308Z,31.59
2016-07-30T06:08:03.307Z,30.91
2016-07-30T06:09:03.311Z,30.26
2016-07-30T06:10:02.606Z,29.81
2016-07-30T06:11:03.324Z,29.3
2016-07-30T06:12:03.315Z,28.89
2016-07-30T06:13:03.315Z,28.65
2016-07-30T06:14:03.320Z,28.49
2016-07-30T06:15:03.324Z,28.37
2016-07-30T06:16:03.324Z,28.25
2016-07-30T06:17:03.324Z,28.31
2016-07-30T06:18:03.328Z,28.65
2016-07-30T06:19:03.327Z,29.2
2016-07-30T06:20:03.331Z,29.84
2016-07-30T06:21:03.331Z,30.69
2016-07-30T06:22:03.336Z,31.48
2016-07-30T06:23:03.336Z,31.95
2016-07-30T06:24:03.339Z,32.31
2016-07-30T06:25:03.340Z,32.63
2016-07-30T06:26:03.343Z,32.94
2016-07-30T06:27:03.344Z,33.17
2016-07-30T06:28:03.348Z,33.5
2016-07-30T06:29:03.348Z,33.97
2016-07-30T06:30:03.352Z,34.76
2016-07-30T06:31:03.351Z,35.38
2016-07-30T06:32:03.356Z,35.88
2016-07-30T06:33:03.355Z,36.13
2016-07-30T06:34:03.359Z,36.32
2016-07-30T06:35:03.363Z,36.33
2016-07-30T06:36:03.367Z,36.28
2016-07-30T06:37:03.363Z,36.05
2016-07-30T06:38:03.368Z,35.59
2016-07-30T06:39:03.368Z,35.49
2016-07-30T06:40:03.371Z,35.56
2016-07-30T06:41:03.371Z,36
2016-07-30T06:42:03.375Z,36.36
2016-07-30T06:43:03.376Z,36.48
2016-07-30T06:44:03.384Z,36.57
2016-07-30T06:45:03.380Z,36.69
2016-07-30T06:46:03.388Z,36.66
2016-07-30T06:47:03.384Z,36.73
2016-07-30T06:48:03.387Z,36.88
2016-07-30T06:49:03.389Z,37.19
2016-07-30T06:50:03.393Z,37.6
2016-07-30T06:51:03.397Z,37.92
2016-07-30T06:52:03.396Z,37.94
2016-07-30T06:53:03.400Z,37.86
2016-07-30T06:54:03.400Z,37.72
2016-07-30T06:55:03.405Z,37.47
2016-07-30T06:56:03.405Z,36.92
2016-07-30T06:57:03.410Z,36.35
2016-07-30T06:58:03.408Z,36.01
2016-07-30T06:59:03.415Z,36.08
2016-07-30T07:00:03.414Z,36.39
2016-07-30T07:01:03.417Z,36.82
2016-07-30T07:02:03.422Z,37.19
2016-07-30T07:03:03.421Z,37.48
2016-07-30T07:04:03.426Z,37.97
2016-07-30T07:05:03.426Z,38.41
2016-07-30T07:06:03.429Z,38.9
2016-07-30T07:07:03.430Z,39.17
2016-07-30T07:08:03.434Z,39.3
2016-07-30T07:09:03.450Z,39.56
2016-07-30T07:10:03.437Z,39.86
2016-07-30T07:11:03.441Z,39.78
2016-07-30T07:12:03.442Z,39.83
2016-07-30T07:13:03.446Z,39.86
2016-07-30T07:14:03.446Z,39.89
2016-07-30T07:15:03.450Z,39.86
2016-07-30T07:16:03.455Z,39.93
2016-07-30T07:17:03.455Z,40.05
2016-07-30T07:18:03.459Z,40
2016-07-30T07:19:03.458Z,40.02
2016-07-30T07:20:03.462Z,39.85
2016-07-30T07:21:02.766Z,39.6
2016-07-30T07:22:03.466Z,39.26
2016-07-30T07:23:03.470Z,39.12
2016-07-30T07:24:03.475Z,39.08
2016-07-30T07:25:03.475Z,38.92
2016-07-30T07:26:03.475Z,38.6
2016-07-30T07:27:03.479Z,38.2
2016-07-30T07:28:03.482Z,37.79
2016-07-30T07:29:03.483Z,37.4
2016-07-30T07:30:03.487Z,37.14
2016-07-30T07:31:03.487Z,37.03
2016-07-30T07:32:03.491Z,37.14
2016-07-30T07:33:03.500Z,37.16
2016-07-30T07:34:03.495Z,37.63
2016-07-30T07:35:03.499Z,38.16
2016-07-30T07:36:03.499Z,38.66
2016-07-30T07:37:03.508Z,39.08
2016-07-30T07:38:03.507Z,39.51
2016-07-30T07:39:03.507Z,39.75
2016-07-30T07:40:03.512Z,40.16
2016-07-30T07:41:03.512Z,40.34
2016-07-30T07:42:03.515Z,40.62
2016-07-30T07:43:03.523Z,40.92
2016-07-30T07:44:03.520Z,41.39
2016-07-30T07:45:03.532Z,41.67
2016-07-30T07:46:03.531Z,41.76
2016-07-30T07:47:03.528Z,42.02
2016-07-30T07:48:03.532Z,42.34
2016-07-30T07:49:03.540Z,42.53
2016-07-30T07:50:03.537Z,42.58
2016-07-30T07:51:02.836Z,42.68
2016-07-30T07:52:03.549Z,42.65
2016-07-30T07:53:03.545Z,42.84
2016-07-30T07:54:03.545Z,42.97
2016-07-30T07:55:03.557Z,43.11
2016-07-30T07:56:03.556Z,43.39
2016-07-30T07:57:03.569Z,43.38
2016-07-30T07:58:03.557Z,43.57
2016-07-30T07:59:03.564Z,43.69
2016-07-30T08:00:03.561Z,43.92
2016-07-30T08:01:03.564Z,44
2016-07-30T08:02:03.564Z,44.16
2016-07-30T08:03:03.585Z,44.25
2016-07-30T08:04:03.572Z,44.34
2016-07-30T08:05:03.572Z,44.38
2016-07-30T08:06:03.577Z,44.47
2016-07-30T08:07:03.580Z,44.64
2016-07-30T08:08:03.596Z,44.91
2016-07-30T08:09:03.585Z,44.73
2016-07-30T08:10:03.589Z,44.79
2016-07-30T08:11:03.588Z,44.67
2016-07-30T08:12:03.592Z,44.59
2016-07-30T08:13:03.597Z,44.6
2016-07-30T08:14:03.601Z,44.42
2016-07-30T08:15:03.612Z,44.18
2016-07-30T08:16:03.605Z,44.06
2016-07-30T08:17:03.612Z,43.89
2016-07-30T08:18:03.609Z,43.8
2016-07-30T08:19:03.613Z,43.87
2016-07-30T08:20:03.621Z,43.99
2016-07-30T08:21:03.617Z,44.11
2016-07-30T08:22:03.625Z,44.53
2016-07-30T08:23:03.621Z,44.68
2016-07-30T08:24:03.164Z,44.86
2016-07-30T08:25:03.625Z,45.13
2016-07-30T08:26:03.628Z,45.14
2016-07-30T08:27:03.633Z,45.1
2016-07-30T08:28:02.929Z,45.04
2016-07-30T08:29:03.645Z,44.99
2016-07-30T08:30:03.645Z,44.89
2016-07-30T08:31:03.645Z,44.91
2016-07-30T08:32:03.645Z,44.48
2016-07-30T08:33:03.649Z,44.16
2016-07-30T08:34:03.654Z,43.92
2016-07-30T08:35:02.953Z,44.06
2016-07-30T08:36:03.657Z,44.26
2016-07-30T08:37:03.661Z,44.42
2016-07-30T08:38:03.660Z,44.45
2016-07-30T08:39:03.225Z,44.53
2016-07-30T08:40:03.669Z,44.59
2016-07-30T08:41:03.677Z,44.57
2016-07-30T08:42:03.673Z,44.6
2016-07-30T08:43:03.689Z,44.55
2016-07-30T08:44:03.681Z,44.55
2016-07-30T08:45:03.681Z,44.52
2016-07-30T08:46:02.981Z,44.6
2016-07-30T08:47:03.685Z,44.4
2016-07-30T08:48:03.689Z,44.11
2016-07-30T08:49:03.693Z,43.69
2016-07-30T08:50:03.693Z,43.47
2016-07-30T08:51:03.697Z,43.39
2016-07-30T08:52:02.996Z,43.25
2016-07-30T08:53:03.713Z,43
2016-07-30T08:55:03.709Z,42.66
2016-07-30T08:56:03.014Z,42.51
2016-07-30T08:57:03.713Z,42.32
2016-07-30T08:58:03.025Z,42.1
2016-07-30T08:59:03.721Z,41.98
2016-07-30T09:00:03.721Z,41.88
2016-07-30T09:01:03.731Z,41.9
2016-07-30T09:02:03.732Z,42.07
2016-07-30T09:03:03.732Z,42.32
2016-07-30T09:04:03.733Z,42.52
2016-07-30T09:05:03.736Z,42.56
2016-07-30T09:06:03.038Z,42.8
2016-07-30T09:07:03.745Z,42.92
2016-07-30T09:08:03.745Z,42.86
2016-07-30T09:10:03.754Z,42.53
2016-07-30T09:11:03.752Z,42.36
2016-07-30T09:12:03.761Z,42.17
2016-07-30T09:13:03.761Z,41.83
2016-07-30T09:14:03.066Z,41.63
2016-07-30T09:15:03.765Z,41.6
2016-07-30T09:16:03.775Z,41.67
2016-07-30T09:17:03.773Z,41.76
2016-07-30T09:18:03.774Z,41.88
2016-07-30T09:19:03.778Z,41.95
2016-07-30T09:20:03.782Z,42.14
2016-07-30T09:21:03.786Z,42.21
2016-07-30T09:22:03.789Z,42.28
2016-07-30T09:23:03.098Z,42.41
2016-07-30T09:24:03.794Z,42.58
2016-07-30T09:25:03.799Z,42.47
2016-07-30T09:26:03.094Z,42.59
2016-07-30T09:27:03.802Z,42.53
2016-07-30T09:28:03.806Z,42.46
2016-07-30T09:29:03.811Z,42.06
2016-07-30T09:30:03.811Z,41.71
2016-07-30T09:31:03.815Z,41.37
2016-07-30T09:32:03.819Z,41.12
2016-07-30T09:33:03.819Z,40.96
2016-07-30T09:34:03.823Z,40.89
2016-07-30T09:35:03.827Z,41.03
2016-07-30T09:36:03.830Z,41.04
2016-07-30T09:37:03.835Z,41.08
2016-07-30T09:38:03.834Z,41.27
2016-07-30T09:39:03.838Z,41.3
2016-07-30T09:40:03.843Z,41.32
2016-07-30T09:41:03.843Z,41.42
2016-07-30T09:42:03.847Z,41.42
2016-07-30T09:43:03.851Z,41.37
2016-07-30T09:44:03.855Z,41.18
2016-07-30T09:45:03.855Z,40.86
2016-07-30T09:46:03.860Z,40.66
2016-07-30T09:47:03.863Z,40.36
2016-07-30T09:48:03.867Z,40.08
2016-07-30T09:49:03.867Z,39.76
2016-07-30T09:50:03.871Z,39.42
2016-07-30T09:51:03.883Z,39
2016-07-30T09:52:03.879Z,38.7
2016-07-30T09:53:03.890Z,38.5
2016-07-30T09:54:03.883Z,38.01
2016-07-30T09:55:03.887Z,37.63
2016-07-30T09:56:03.911Z,37.33
2016-07-30T09:57:03.895Z,37.09
2016-07-30T09:58:03.896Z,36.78
2016-07-30T09:59:03.900Z,36.66
2016-07-30T10:00:03.904Z,36.28
2016-07-30T10:01:03.907Z,36.08
2016-07-30T10:02:03.908Z,35.88
2016-07-30T10:03:03.207Z,35.64
2016-07-30T10:04:03.211Z,35.44
2016-07-30T10:05:03.920Z,35.16
2016-07-30T10:06:03.919Z,35.05
2016-07-30T10:07:03.220Z,34.85
2016-07-30T10:08:03.927Z,34.58
2016-07-30T10:09:03.931Z,34.47
2016-07-30T10:10:03.932Z,34.31
2016-07-30T10:11:03.935Z,34.25
2016-07-30T10:12:03.939Z,34.21
2016-07-30T10:13:03.944Z,34.18
2016-07-30T10:14:03.943Z,33.98
2016-07-30T10:15:03.948Z,34.03
2016-07-30T10:16:03.952Z,33.89
2016-07-30T10:17:03.964Z,33.85
2016-07-30T10:18:03.956Z,33.81
2016-07-30T10:19:03.960Z,33.77
2016-07-30T10:20:03.964Z,33.66
2016-07-30T10:21:03.968Z,33.66
2016-07-30T10:22:03.968Z,33.63
2016-07-30T10:23:03.971Z,33.54
2016-07-30T10:24:03.976Z,33.4
2016-07-30T10:25:03.981Z,33.36
2016-07-30T10:26:03.980Z,33.22
2016-07-30T10:27:03.984Z,33.22
2016-07-30T10:28:03.988Z,33.22
2016-07-30T10:29:03.992Z,33.26
2016-07-30T10:30:03.996Z,33.28
2016-07-30T10:31:04.009Z,33.26
2016-07-30T10:32:04.000Z,33.29
2016-07-30T10:33:04.004Z,33.35
2016-07-30T10:34:04.012Z,33.29
2016-07-30T10:35:04.009Z,33.32
2016-07-30T10:36:03.308Z,33.1
2016-07-30T10:37:04.015Z,33.1
2016-07-30T10:38:04.032Z,33.12
2016-07-30T10:39:04.020Z,33.12
2016-07-30T10:40:04.024Z,33.12
2016-07-30T10:41:04.028Z,33.13
2016-07-30T10:42:04.033Z,33.13
2016-07-30T10:43:04.033Z,33.16
2016-07-30T10:44:04.037Z,33.09
2016-07-30T10:45:04.040Z,32.94
2016-07-30T10:46:04.045Z,33
2016-07-30T10:47:03.340Z,32.94
2016-07-30T10:48:04.048Z,33.1
2016-07-30T10:49:04.052Z,33.08
2016-07-30T10:50:03.352Z,32.98
2016-07-30T10:51:04.064Z,32.98
2016-07-30T10:52:04.060Z,32.93
2016-07-30T10:53:04.066Z,32.93
2016-07-30T10:54:04.069Z,32.86
2016-07-30T10:55:04.073Z,32.78
2016-07-30T10:56:04.084Z,32.78
2016-07-30T10:57:04.077Z,32.67
2016-07-30T10:58:04.084Z,32.6
2016-07-30T10:59:04.085Z,32.61
2016-07-30T11:00:04.092Z,32.56
2016-07-30T11:01:04.089Z,32.49
2016-07-30T11:02:04.092Z,32.46
2016-07-30T11:03:04.097Z,32.37
2016-07-30T11:04:04.101Z,32.3
2016-07-30T11:05:04.101Z,32.37
2016-07-30T11:06:04.105Z,32.26
2016-07-30T11:07:04.109Z,32.27
2016-07-30T11:08:04.109Z,32.12
2016-07-30T11:09:04.113Z,32.07
2016-07-30T11:10:04.121Z,31.93
2016-07-30T11:11:04.121Z,31.9
2016-07-30T11:12:04.125Z,31.92
2016-07-30T11:13:04.138Z,31.85
2016-07-30T11:14:04.129Z,31.89
2016-07-30T11:15:04.133Z,31.82
2016-07-30T11:16:04.138Z,31.74
2016-07-30T11:17:04.141Z,31.74
2016-07-30T11:18:04.142Z,31.72
2016-07-30T11:19:04.145Z,31.6
2016-07-30T11:20:04.150Z,31.63
2016-07-30T11:21:04.157Z,31.64
2016-07-30T11:22:04.153Z,31.67
2016-07-30T11:23:04.158Z,31.63
2016-07-30T11:24:04.161Z,31.63
2016-07-30T11:25:04.169Z,31.72
2016-07-30T11:26:04.165Z,31.64
2016-07-30T11:27:03.465Z,31.51
2016-07-30T11:28:03.469Z,31.6
2016-07-30T11:29:04.178Z,31.62
2016-07-30T11:30:04.177Z,31.6
2016-07-30T11:31:04.182Z,31.45
2016-07-30T11:32:04.189Z,31.57
2016-07-30T11:33:04.189Z,31.48
2016-07-30T11:34:04.189Z,31.55
2016-07-30T11:35:04.194Z,31.57
2016-07-30T11:36:04.197Z,31.52
2016-07-30T11:37:04.197Z,31.59
2016-07-30T11:38:03.498Z,31.54
2016-07-30T11:39:04.206Z,31.6
2016-07-30T11:40:04.210Z,31.6
2016-07-30T11:41:04.226Z,31.59
2016-07-30T11:42:04.213Z,31.54
2016-07-30T11:43:04.217Z,31.63
2016-07-30T11:44:04.225Z,31.51
2016-07-30T11:45:04.225Z,31.57
2016-07-30T11:46:04.225Z,31.62
2016-07-30T11:47:04.230Z,31.45
2016-07-30T11:48:03.529Z,31.6
2016-07-30T11:49:04.238Z,31.48
2016-07-30T11:50:04.238Z,31.47
2016-07-30T11:51:04.241Z,31.44
2016-07-30T11:52:04.246Z,31.42
2016-07-30T11:53:04.253Z,31.42
2016-07-30T11:54:04.258Z,31.44
2016-07-30T11:55:04.257Z,31.37
2016-07-30T11:56:04.258Z,31.44
2016-07-30T11:57:04.262Z,31.45
2016-07-30T11:58:04.266Z,31.47
2016-07-30T11:59:04.266Z,31.37
2016-07-30T12:00:04.270Z,31.33
2016-07-30T12:01:04.275Z,31.35
2016-07-30T12:02:04.278Z,31.28
2016-07-30T12:03:04.278Z,31.3
2016-07-30T12:04:04.282Z,31.25
2016-07-30T12:05:04.287Z,31.22
2016-07-30T12:06:04.290Z,31.18
2016-07-30T12:07:03.586Z,31.2
2016-07-30T12:08:04.294Z,31.18
2016-07-30T12:09:03.596Z,31.22
2016-07-30T12:10:04.299Z,31.11
2016-07-30T12:11:04.303Z,31.2
2016-07-30T12:12:04.306Z,31.2
2016-07-30T12:13:04.311Z,31.1
2016-07-30T12:14:04.310Z,31.13
2016-07-30T12:15:04.314Z,31.14
2016-07-30T12:16:04.319Z,31.14
2016-07-30T12:17:04.323Z,31.08
2016-07-30T12:18:04.322Z,31.11
2016-07-30T12:19:04.327Z,31.07
2016-07-30T12:20:04.331Z,31.04
2016-07-30T12:21:04.339Z,30.98
2016-07-30T12:22:04.335Z,31.02
2016-07-30T12:23:04.339Z,31.04
2016-07-30T12:24:04.355Z,31.08
2016-07-30T12:25:04.347Z,30.98
2016-07-30T12:26:04.350Z,30.98
2016-07-30T12:27:04.352Z,30.96
2016-07-30T12:28:04.354Z,30.98
2016-07-30T12:29:04.371Z,30.95
2016-07-30T12:30:04.363Z,30.93
2016-07-30T12:31:04.366Z,30.91
2016-07-30T12:32:04.367Z,30.89
2016-07-30T12:33:04.371Z,30.95
2016-07-30T12:34:03.671Z,30.89
2016-07-30T12:35:04.379Z,30.93
2016-07-30T12:36:04.383Z,30.93
2016-07-30T12:37:04.383Z,30.91
2016-07-30T12:38:04.386Z,30.91
2016-07-30T12:39:04.387Z,30.98
2016-07-30T12:40:03.227Z,30.95
2016-07-30T12:41:04.394Z,30.99
2016-07-30T12:42:04.399Z,30.92
2016-07-30T12:43:04.399Z,30.86
2016-07-30T12:44:04.403Z,30.73
2016-07-30T12:45:04.407Z,30.7
2016-07-30T12:46:04.411Z,30.71
2016-07-30T12:47:04.419Z,30.65
2016-07-30T12:48:04.416Z,30.7
2016-07-30T12:49:04.420Z,30.61
2016-07-30T12:50:04.424Z,30.55
2016-07-30T12:51:04.428Z,30.58
2016-07-30T12:52:04.428Z,30.59
2016-07-30T12:53:04.431Z,30.59
2016-07-30T12:54:04.435Z,30.59
2016-07-30T12:56:04.439Z,30.71
2016-07-30T12:57:04.443Z,30.67
2016-07-30T12:58:04.448Z,30.7
2016-07-30T12:59:04.451Z,30.71
2016-07-30T13:00:04.451Z,30.73
2016-07-30T13:01:03.752Z,30.8
2016-07-30T13:02:04.460Z,30.85
2016-07-30T13:03:04.464Z,30.76